sensor_id;sensor_type;location;lat;lon;timestamp;pressure;altitude;pressure_sealevel;temperature;humidity
62111;BME280;48102;47.526;19.072;2023-02-03T04:42:18;101164.50;;;-0.34;100.00
62111;BME280;48102;47.526;19.072;2023-02-03T04:45:21;101166.22;;;-0.31;100.00
62111;BME280;48102;47.526;19.072;2023-02-03T04:48:24;101174.97;;;-0.18;100.00
62111;BME280;48102;47.526;19.072;2023-02-03T04:51:27;101167.34;;;0.02;100.00
62111;BME280;48102;47.526;19.072;2023-02-03T04:54:29;101145.84;;;0.18;100.00
62111;BME280;48102;47.526;19.072;2023-02-03T04:57:32;101156.22;;;0.24;100.00
62111;BME280;48102;47.526;19.072;2023-02-03T05:00:35;101150.22;;;0.28;100.00
62111;BME280;48102;47.526;19.072;2023-02-03T05:03:38;101144.22;;;0.40;100.00
62111;BME280;48102;47.526;19.072;2023-02-03T05:06:41;101147.72;;;0.43;100.00
62111;BME280;48102;47.526;19.072;2023-02-03T05:09:44;101152.91;;;0.43;98.95
62111;BME280;48102;47.526;19.072;2023-02-03T05:12:46;101146.81;;;0.41;98.21
62111;BME280;48102;47.526;19.072;2023-02-03T05:15:49;101135.59;;;0.47;95.31
62111;BME280;48102;47.526;19.072;2023-02-03T05:18:52;101145.97;;;0.45;94.71
62111;BME280;48102;47.526;19.072;2023-02-03T05:21:55;101151.19;;;0.48;95.00
62111;BME280;48102;47.526;19.072;2023-02-03T05:24:58;101153.75;;;0.45;94.34
62111;BME280;48102;47.526;19.072;2023-02-03T05:28:01;101166.72;;;0.45;94.30
62111;BME280;48102;47.526;19.072;2023-02-03T05:31:04;101166.72;;;0.47;95.89
62111;BME280;48102;47.526;19.072;2023-02-03T05:34:07;101161.56;;;0.50;93.64
62111;BME280;48102;47.526;19.072;2023-02-03T05:37:09;101167.56;;;0.47;97.85
62111;BME280;48102;47.526;19.072;2023-02-03T05:40:12;101158.94;;;0.47;90.97
62111;BME280;48102;47.526;19.072;2023-02-03T05:43:34;101167.62;;;0.54;88.97
62111;BME280;48102;47.526;19.072;2023-02-03T05:46:37;101165.09;;;0.66;87.93
62111;BME280;48102;47.526;19.072;2023-02-03T05:49:40;101164.22;;;0.73;86.33
62111;BME280;48102;47.526;19.072;2023-02-03T05:52:43;101163.38;;;0.75;84.59
62111;BME280;48102;47.526;19.072;2023-02-03T05:55:45;101174.62;;;0.78;84.36
62111;BME280;48102;47.526;19.072;2023-02-03T05:58:49;101182.44;;;0.85;79.82
62111;BME280;48102;47.526;19.072;2023-02-03T06:01:54;101178.19;;;1.15;76.34
62111;BME280;48102;47.526;19.072;2023-02-03T06:04:57;101178.19;;;1.09;79.09
62111;BME280;48102;47.526;19.072;2023-02-03T06:08:00;101173.91;;;1.17;78.44
62111;BME280;48102;47.526;19.072;2023-02-03T06:11:03;101165.19;;;1.12;78.30
62111;BME280;48102;47.526;19.072;2023-02-03T06:14:06;101160.03;;;1.13;78.54
62111;BME280;48102;47.526;19.072;2023-02-03T06:17:09;101158.28;;;1.12;79.15
62111;BME280;48102;47.526;19.072;2023-02-03T06:20:13;101160.03;;;1.24;76.16
62111;BME280;48102;47.526;19.072;2023-02-03T06:23:17;101172.19;;;1.31;79.53
62111;BME280;48102;47.526;19.072;2023-02-03T06:26:20;101166.09;;;1.29;80.51
62111;BME280;48102;47.526;19.072;2023-02-03T06:29:23;101172.19;;;1.30;81.44
62111;BME280;48102;47.526;19.072;2023-02-03T06:32:26;101179.09;;;1.40;81.48
62111;BME280;48102;47.526;19.072;2023-02-03T06:35:29;101179.97;;;1.40;82.24
62111;BME280;48102;47.526;19.072;2023-02-03T06:38:32;101178.25;;;1.35;83.54
62111;BME280;48102;47.526;19.072;2023-02-03T06:41:35;101176.50;;;1.37;84.36
62111;BME280;48102;47.526;19.072;2023-02-03T06:44:38;101183.44;;;1.32;84.91
62111;BME280;48102;47.526;19.072;2023-02-03T06:47:42;101183.44;;;1.32;83.71
62111;BME280;48102;47.526;19.072;2023-02-03T06:50:45;101190.38;;;1.43;83.07
62111;BME280;48102;47.526;19.072;2023-02-03T06:53:50;101186.91;;;1.50;81.18
62111;BME280;48102;47.526;19.072;2023-02-03T06:56:53;101191.22;;;1.50;79.95
62111;BME280;48102;47.526;19.072;2023-02-03T06:59:56;101192.09;;;1.54;81.20
62111;BME280;48102;47.526;19.072;2023-02-03T07:02:59;101189.50;;;1.60;78.57
62111;BME280;48102;47.526;19.072;2023-02-03T07:06:04;101186.91;;;1.72;71.78
62111;BME280;48102;47.526;19.072;2023-02-03T07:09:07;101177.38;;;1.83;74.17
62111;BME280;48102;47.526;19.072;2023-02-03T07:12:10;101183.44;;;1.96;70.12
62111;BME280;48102;47.526;19.072;2023-02-03T07:15:12;101173.91;;;2.06;68.70
62111;BME280;48102;47.526;19.072;2023-02-03T07:18:16;101175.66;;;2.04;73.42
62111;BME280;48102;47.526;19.072;2023-02-03T07:21:40;101178.22;;;2.08;75.62
62111;BME280;48102;47.526;19.072;2023-02-03T07:24:43;101179.09;;;2.10;73.94
62111;BME280;48102;47.526;19.072;2023-02-03T07:27:46;101173.91;;;2.12;70.06
62111;BME280;48102;47.526;19.072;2023-02-03T07:30:50;101183.41;;;2.25;73.60
62111;BME280;48102;47.526;19.072;2023-02-03T07:33:52;101180.75;;;2.37;78.12
62111;BME280;48102;47.526;19.072;2023-02-03T07:36:56;101177.28;;;2.41;82.40
62111;BME280;48102;47.526;19.072;2023-02-03T07:39:59;101179.87;;;2.37;81.37
62111;BME280;48102;47.526;19.072;2023-02-03T07:43:02;101177.28;;;2.37;82.99
62111;BME280;48102;47.526;19.072;2023-02-03T07:46:04;101178.16;;;2.39;77.29
62111;BME280;48102;47.526;19.072;2023-02-03T07:49:08;101192.87;;;2.44;74.48
62111;BME280;48102;47.526;19.072;2023-02-03T07:52:12;101196.34;;;2.46;65.38
62111;BME280;48102;47.526;19.072;2023-02-03T07:55:15;101188.56;;;2.40;68.33
62111;BME280;48102;47.526;19.072;2023-02-03T07:58:18;101185.97;;;2.34;65.73
62111;BME280;48102;47.526;19.072;2023-02-03T08:01:21;101194.62;;;2.36;69.66
62111;BME280;48102;47.526;19.072;2023-02-03T08:04:25;101202.44;;;2.39;71.71
62111;BME280;48102;47.526;19.072;2023-02-03T08:07:27;101208.50;;;2.38;66.82
62111;BME280;48102;47.526;19.072;2023-02-03T08:10:30;101201.53;;;2.45;67.55
62111;BME280;48102;47.526;19.072;2023-02-03T08:13:33;101202.41;;;2.51;65.32
62111;BME280;48102;47.526;19.072;2023-02-03T08:16:36;101195.47;;;2.47;67.89
62111;BME280;48102;47.526;19.072;2023-02-03T08:19:39;101198.06;;;2.46;67.57
62111;BME280;48102;47.526;19.072;2023-02-03T08:22:42;101196.34;;;2.48;66.54
62111;BME280;48102;47.526;19.072;2023-02-03T08:25:50;101196.31;;;2.49;65.74
62111;BME280;48102;47.526;19.072;2023-02-03T08:28:53;101194.59;;;2.51;67.16
62111;BME280;48102;47.526;19.072;2023-02-03T08:31:56;101202.38;;;2.50;65.92
62111;BME280;48102;47.526;19.072;2023-02-03T08:35:00;101202.41;;;2.48;66.09
62111;BME280;48102;47.526;19.072;2023-02-03T08:38:03;101205.88;;;2.50;65.13
62111;BME280;48102;47.526;19.072;2023-02-03T08:41:14;101205.00;;;2.48;64.84
62111;BME280;48102;47.526;19.072;2023-02-03T08:44:19;101204.13;;;2.53;65.82
62111;BME280;48102;47.526;19.072;2023-02-03T08:47:22;101200.66;;;2.55;69.92
62111;BME280;48102;47.526;19.072;2023-02-03T08:50:28;101213.69;;;2.55;70.19
62111;BME280;48102;47.526;19.072;2023-02-03T08:53:31;101206.72;;;2.57;71.47
62111;BME280;48102;47.526;19.072;2023-02-03T08:56:34;101204.97;;;2.58;72.25
62111;BME280;48102;47.526;19.072;2023-02-03T08:59:40;101217.09;;;2.68;73.19
62111;BME280;48102;47.526;19.072;2023-02-03T09:02:43;101208.38;;;2.72;76.53
62111;BME280;48102;47.526;19.072;2023-02-03T09:05:46;101218.78;;;2.78;78.47
62111;BME280;48102;47.526;19.072;2023-02-03T09:08:49;101217.09;;;2.72;81.25
62111;BME280;48102;47.526;19.072;2023-02-03T09:11:55;101214.44;;;2.79;84.11
62111;BME280;48102;47.526;19.072;2023-02-03T09:15:04;101210.09;;;2.85;86.53
62111;BME280;48102;47.526;19.072;2023-02-03T09:18:07;101214.50;;;2.72;96.41
62111;BME280;48102;47.526;19.072;2023-02-03T09:21:10;101210.25;;;2.29;100.00
62111;BME280;48102;47.526;19.072;2023-02-03T09:24:33;101216.37;;;2.05;100.00
62111;BME280;48102;47.526;19.072;2023-02-03T09:27:35;101219.81;;;1.88;100.00
62111;BME280;48102;47.526;19.072;2023-02-03T09:30:39;101221.56;;;1.77;100.00
62111;BME280;48102;47.526;19.072;2023-02-03T09:33:42;101213.75;;;1.63;100.00
62111;BME280;48102;47.526;19.072;2023-02-03T09:36:46;101211.12;;;1.30;100.00
62111;BME280;48102;47.526;19.072;2023-02-03T09:39:49;101206.75;;;1.19;100.00
62111;BME280;48102;47.526;19.072;2023-02-03T09:43:50;101202.38;;;0.95;100.00
62111;BME280;48102;47.526;19.072;2023-02-03T09:46:37;101197.13;;;0.80;100.00
62111;BME280;48102;47.526;19.072;2023-02-03T09:49:45;101197.09;;;0.75;100.00
62111;BME280;48102;47.526;19.072;2023-02-03T09:52:51;101188.47;;;0.75;100.00
62111;BME280;48102;47.526;19.072;2023-02-03T09:55:57;101180.69;;;0.81;100.00
62111;BME280;48102;47.526;19.072;2023-02-03T09:59:00;101163.41;;;0.85;100.00
62111;BME280;48102;47.526;19.072;2023-02-03T10:05:48;101152.19;;;0.92;100.00
62111;BME280;48102;47.526;19.072;2023-02-03T10:09:29;101143.56;;;1.00;100.00
62111;BME280;48102;47.526;19.072;2023-02-03T10:16:00;101118.50;;;1.19;100.00
62111;BME280;48102;47.526;19.072;2023-02-03T10:19:14;101107.28;;;1.39;100.00
62111;BME280;48102;47.526;19.072;2023-02-03T10:22:24;101109.00;;;1.52;100.00
62111;BME280;48102;47.526;19.072;2023-02-03T10:25:52;101090.78;;;1.60;100.00
62111;BME280;48102;47.526;19.072;2023-02-03T10:29:07;101087.34;;;1.70;100.00
62111;BME280;48102;47.526;19.072;2023-02-03T10:32:15;101069.09;;;1.88;100.00
62111;BME280;48102;47.526;19.072;2023-02-03T10:35:20;101062.19;;;1.86;100.00
62111;BME280;48102;47.526;19.072;2023-02-03T10:41:38;101057.84;;;1.86;100.00
62111;BME280;48102;47.526;19.072;2023-02-03T10:44:46;101050.06;;;1.83;100.00
62111;BME280;48102;47.526;19.072;2023-02-03T10:47:53;101044.88;;;1.83;100.00
62111;BME280;48102;47.526;19.072;2023-02-03T10:50:57;101031.03;;;1.72;100.00
62111;BME280;48102;47.526;19.072;2023-02-03T10:53:59;101031.03;;;1.73;100.00
62111;BME280;48102;47.526;19.072;2023-02-03T10:57:13;101028.44;;;1.60;100.00
62111;BME280;48102;47.526;19.072;2023-02-03T11:03:26;101014.62;;;1.42;100.00
62111;BME280;48102;47.526;19.072;2023-02-03T11:06:31;100997.31;;;1.44;100.00
62111;BME280;48102;47.526;19.072;2023-02-03T11:09:39;100993.00;;;1.53;100.00
62111;BME280;48102;47.526;19.072;2023-02-03T11:12:43;100987.78;;;1.54;100.00
62111;BME280;48102;47.526;19.072;2023-02-03T11:16:16;100981.72;;;1.50;100.00
62111;BME280;48102;47.526;19.072;2023-02-03T11:19:22;100971.34;;;1.46;100.00
62111;BME280;48102;47.526;19.072;2023-02-03T11:22:26;100980.91;;;1.33;100.00
62111;BME280;48102;47.526;19.072;2023-02-03T11:25:31;100954.94;;;1.24;100.00
62111;BME280;48102;47.526;19.072;2023-02-03T11:28:35;100954.97;;;1.15;100.00
62111;BME280;48102;47.526;19.072;2023-02-03T11:31:37;100948.94;;;1.08;100.00
62111;BME280;48102;47.526;19.072;2023-02-03T11:34:45;100939.41;;;1.06;100.00
62111;BME280;48102;47.526;19.072;2023-02-03T11:37:50;100923.81;;;1.18;100.00
62111;BME280;48102;47.526;19.072;2023-02-03T11:41:00;100910.00;;;1.13;100.00
62111;BME280;48102;47.526;19.072;2023-02-03T11:44:21;100909.97;;;1.20;100.00
62111;BME280;48102;47.526;19.072;2023-02-03T11:47:24;100908.28;;;1.09;100.00
62111;BME280;48102;47.526;19.072;2023-02-03T12:30:51;100784.69;;;0.59;100.00
62111;BME280;48102;47.526;19.072;2023-02-03T12:34:22;100777.78;;;0.56;100.00
62111;BME280;48102;47.526;19.072;2023-02-03T12:37:42;100751.00;;;0.59;100.00
62111;BME280;48102;47.526;19.072;2023-02-03T12:40:53;100744.06;;;0.70;100.00
62111;BME280;48102;47.526;19.072;2023-02-03T12:44:00;100737.97;;;0.83;100.00
62111;BME280;48102;47.526;19.072;2023-02-03T12:47:24;100737.06;;;0.92;100.00
62111;BME280;48102;47.526;19.072;2023-02-03T12:50:31;100717.97;;;1.02;100.00
62111;BME280;48102;47.526;19.072;2023-02-03T12:53:39;100711.91;;;1.06;100.00
62111;BME280;48102;47.526;19.072;2023-02-03T12:56:46;100698.06;;;1.07;100.00
62111;BME280;48102;47.526;19.072;2023-02-03T13:06:35;100676.34;;;1.22;100.00
62111;BME280;48102;47.526;19.072;2023-02-03T13:10:02;100659.88;;;1.24;100.00
62111;BME280;48102;47.526;19.072;2023-02-03T13:13:10;100667.69;;;1.26;100.00
62111;BME280;48102;47.526;19.072;2023-02-03T13:16:20;100653.81;;;1.24;100.00
62111;BME280;48102;47.526;19.072;2023-02-03T13:19:27;100642.47;;;1.37;100.00
62111;BME280;48102;47.526;19.072;2023-02-03T13:22:32;100645.06;;;1.37;100.00
62111;BME280;48102;47.526;19.072;2023-02-03T13:29:12;100638.19;;;1.32;100.00
62111;BME280;48102;47.526;19.072;2023-02-03T13:32:27;100621.78;;;1.28;100.00
62111;BME280;48102;47.526;19.072;2023-02-03T13:42:32;100598.31;;;1.40;100.00
62111;BME280;48102;47.526;19.072;2023-02-03T13:45:48;100594.00;;;1.41;100.00
62111;BME280;48102;47.526;19.072;2023-02-03T13:48:53;100575.81;;;1.41;100.00
62111;BME280;48102;47.526;19.072;2023-02-03T13:51:58;100585.31;;;1.45;100.00
62111;BME280;48102;47.526;19.072;2023-02-03T13:55:03;100576.63;;;1.46;100.00
62111;BME280;48102;47.526;19.072;2023-02-03T13:58:22;100563.66;;;1.46;100.00
62111;BME280;48102;47.526;19.072;2023-02-03T14:07:38;100556.72;;;1.48;100.00
62111;BME280;48102;47.526;19.072;2023-02-03T14:10:41;100548.91;;;1.49;100.00
62111;BME280;48102;47.526;19.072;2023-02-03T14:13:44;100549.63;;;1.65;100.00
62111;BME280;48102;47.526;19.072;2023-02-03T14:16:51;100546.19;;;1.65;100.00
62111;BME280;48102;47.526;19.072;2023-02-03T14:19:56;100540.03;;;1.72;100.00
62111;BME280;48102;47.526;19.072;2023-02-03T14:23:10;100538.25;;;1.75;100.00
62111;BME280;48102;47.526;19.072;2023-02-03T14:26:19;100528.75;;;1.74;100.00
62111;BME280;48102;47.526;19.072;2023-02-03T14:29:29;100525.31;;;1.71;100.00
62111;BME280;48102;47.526;19.072;2023-02-03T14:32:55;100515.69;;;1.82;100.00
62111;BME280;48102;47.526;19.072;2023-02-03T14:35:59;100508.66;;;1.89;100.00
62111;BME280;48102;47.526;19.072;2023-02-03T14:39:04;100515.59;;;1.88;100.00
62111;BME280;48102;47.526;19.072;2023-02-03T14:46:57;100500.03;;;1.87;100.00
62111;BME280;48102;47.526;19.072;2023-02-03T14:53:57;100489.56;;;1.93;100.00
62111;BME280;48102;47.526;19.072;2023-02-03T14:57:21;100486.94;;;1.96;100.00
62111;BME280;48102;47.526;19.072;2023-02-03T15:00:30;100473.88;;;2.00;100.00
62111;BME280;48102;47.526;19.072;2023-02-03T15:03:35;100477.25;;;2.09;100.00
62111;BME280;48102;47.526;19.072;2023-02-03T15:06:51;100465.09;;;2.09;100.00
62111;BME280;48102;47.526;19.072;2023-02-03T15:09:55;100456.34;;;2.15;100.00
62111;BME280;48102;47.526;19.072;2023-02-03T15:12:58;100451.09;;;2.21;100.00
62111;BME280;48102;47.526;19.072;2023-02-03T15:16:02;100443.28;;;2.21;100.00
62111;BME280;48102;47.526;19.072;2023-02-03T15:19:17;100440.56;;;2.30;100.00
62111;BME280;48102;47.526;19.072;2023-02-03T15:25:26;100439.59;;;2.36;100.00
62111;BME280;48102;47.526;19.072;2023-02-03T15:28:31;100429.12;;;2.40;100.00
62111;BME280;48102;47.526;19.072;2023-02-03T15:31:41;100414.41;;;2.39;100.00
62111;BME280;48102;47.526;19.072;2023-02-03T15:34:48;100418.59;;;2.48;100.00
62111;BME280;48102;47.526;19.072;2023-02-03T15:37:54;100412.63;;;2.43;100.00
62111;BME280;48102;47.526;19.072;2023-02-03T15:41:00;100409.97;;;2.47;100.00
62111;BME280;48102;47.526;19.072;2023-02-03T15:44:25;100409.03;;;2.51;100.00
62111;BME280;48102;47.526;19.072;2023-02-03T15:47:58;100403.91;;;2.47;100.00
62111;BME280;48102;47.526;19.072;2023-02-03T15:51:15;100400.44;;;2.45;100.00
62111;BME280;48102;47.526;19.072;2023-02-03T15:54:29;100399.59;;;2.44;100.00
62111;BME280;48102;47.526;19.072;2023-02-03T15:57:35;100392.78;;;2.36;100.00
62111;BME280;48102;47.526;19.072;2023-02-03T16:00:39;100388.34;;;2.44;100.00
62111;BME280;48102;47.526;19.072;2023-02-03T16:03:46;100389.16;;;2.47;100.00
62111;BME280;48102;47.526;19.072;2023-02-03T16:06:51;100384.91;;;2.42;100.00
62111;BME280;48102;47.526;19.072;2023-02-03T16:09:56;100384.91;;;2.40;100.00
62111;BME280;48102;47.526;19.072;2023-02-03T16:13:18;100390.22;;;2.34;100.00
